sensor_id;sensor_type;location;lat;lon;timestamp;P1;durP1;ratioP1;P2;durP2;ratioP2
5704;SDS011;2877;48.238;11.160;2023-06-10T00:00:16;8.97;;;8.13;;
5704;SDS011;2877;48.238;11.160;2023-06-10T00:02:42;9.30;;;8.40;;
5704;SDS011;2877;48.238;11.160;2023-06-10T00:05:08;10.13;;;8.40;;
5704;SDS011;2877;48.238;11.160;2023-06-10T00:07:34;13.13;;;8.40;;
5704;SDS011;2877;48.238;11.160;2023-06-10T00:10:03;11.80;;;9.33;;
5704;SDS011;2877;48.238;11.160;2023-06-10T00:12:30;10.07;;;8.60;;
5704;SDS011;2877;48.238;11.160;2023-06-10T00:15:01;9.47;;;8.50;;
5704;SDS011;2877;48.238;11.160;2023-06-10T00:17:28;10.50;;;8.30;;
5704;SDS011;2877;48.238;11.160;2023-06-10T00:19:54;9.97;;;8.40;;
5704;SDS011;2877;48.238;11.160;2023-06-10T00:22:20;9.60;;;8.70;;
5704;SDS011;2877;48.238;11.160;2023-06-10T00:24:46;9.03;;;8.13;;
5704;SDS011;2877;48.238;11.160;2023-06-10T00:27:12;9.13;;;8.30;;
5704;SDS011;2877;48.238;11.160;2023-06-10T00:29:38;9.20;;;8.30;;
5704;SDS011;2877;48.238;11.160;2023-06-10T00:32:04;9.67;;;8.77;;
5704;SDS011;2877;48.238;11.160;2023-06-10T00:34:30;8.90;;;8.10;;
5704;SDS011;2877;48.238;11.160;2023-06-10T00:36:57;9.70;;;8.40;;
5704;SDS011;2877;48.238;11.160;2023-06-10T00:39:22;10.03;;;8.87;;
5704;SDS011;2877;48.238;11.160;2023-06-10T00:41:48;9.20;;;8.30;;
5704;SDS011;2877;48.238;11.160;2023-06-10T00:44:14;9.80;;;8.43;;
5704;SDS011;2877;48.238;11.160;2023-06-10T00:46:40;10.17;;;7.93;;
5704;SDS011;2877;48.238;11.160;2023-06-10T00:49:06;14.00;;;8.67;;
5704;SDS011;2877;48.238;11.160;2023-06-10T00:51:33;9.00;;;8.10;;
5704;SDS011;2877;48.238;11.160;2023-06-10T00:53:59;9.57;;;7.80;;
5704;SDS011;2877;48.238;11.160;2023-06-10T00:56:25;8.83;;;7.93;;
5704;SDS011;2877;48.238;11.160;2023-06-10T00:58:50;9.23;;;8.10;;
5704;SDS011;2877;48.238;11.160;2023-06-10T01:01:16;8.40;;;7.60;;
5704;SDS011;2877;48.238;11.160;2023-06-10T01:03:42;11.30;;;9.23;;
5704;SDS011;2877;48.238;11.160;2023-06-10T01:06:21;11.50;;;8.50;;
5704;SDS011;2877;48.238;11.160;2023-06-10T01:11:47;9.10;;;8.30;;
5704;SDS011;2877;48.238;11.160;2023-06-10T01:14:19;8.83;;;8.00;;
5704;SDS011;2877;48.238;11.160;2023-06-10T01:16:45;8.67;;;7.87;;
5704;SDS011;2877;48.238;11.160;2023-06-10T01:19:11;8.83;;;8.03;;
5704;SDS011;2877;48.238;11.160;2023-06-10T01:21:38;9.27;;;8.27;;
5704;SDS011;2877;48.238;11.160;2023-06-10T01:24:04;8.97;;;8.07;;
5704;SDS011;2877;48.238;11.160;2023-06-10T01:26:33;8.77;;;7.73;;
5704;SDS011;2877;48.238;11.160;2023-06-10T01:29:03;8.97;;;7.73;;
5704;SDS011;2877;48.238;11.160;2023-06-10T01:31:42;9.30;;;7.70;;
5704;SDS011;2877;48.238;11.160;2023-06-10T01:34:14;8.60;;;7.80;;
5704;SDS011;2877;48.238;11.160;2023-06-10T01:36:47;8.53;;;7.73;;
5704;SDS011;2877;48.238;11.160;2023-06-10T01:39:17;9.57;;;7.67;;
5704;SDS011;2877;48.238;11.160;2023-06-10T01:41:45;10.33;;;8.13;;
5704;SDS011;2877;48.238;11.160;2023-06-10T01:44:12;8.90;;;8.00;;
5704;SDS011;2877;48.238;11.160;2023-06-10T01:46:43;9.50;;;8.27;;
5704;SDS011;2877;48.238;11.160;2023-06-10T01:49:09;11.97;;;7.73;;
5704;SDS011;2877;48.238;11.160;2023-06-10T01:51:34;10.10;;;8.30;;
5704;SDS011;2877;48.238;11.160;2023-06-10T01:54:01;9.30;;;8.23;;
5704;SDS011;2877;48.238;11.160;2023-06-10T01:56:26;10.40;;;7.97;;
5704;SDS011;2877;48.238;11.160;2023-06-10T01:58:52;7.30;;;6.60;;
5704;SDS011;2877;48.238;11.160;2023-06-10T02:01:20;10.83;;;7.97;;
5704;SDS011;2877;48.238;11.160;2023-06-10T02:03:46;8.63;;;7.73;;
5704;SDS011;2877;48.238;11.160;2023-06-10T02:06:11;9.37;;;7.83;;
5704;SDS011;2877;48.238;11.160;2023-06-10T02:08:36;8.23;;;7.43;;
5704;SDS011;2877;48.238;11.160;2023-06-10T02:11:02;8.40;;;7.63;;
5704;SDS011;2877;48.238;11.160;2023-06-10T02:13:28;8.60;;;7.80;;
5704;SDS011;2877;48.238;11.160;2023-06-10T02:15:53;8.87;;;7.97;;
5704;SDS011;2877;48.238;11.160;2023-06-10T02:18:19;8.97;;;8.03;;
5704;SDS011;2877;48.238;11.160;2023-06-10T02:20:45;8.87;;;8.07;;
5704;SDS011;2877;48.238;11.160;2023-06-10T02:23:11;13.60;;;8.20;;
5704;SDS011;2877;48.238;11.160;2023-06-10T02:25:36;8.87;;;8.07;;
5704;SDS011;2877;48.238;11.160;2023-06-10T02:28:02;8.40;;;7.60;;
5704;SDS011;2877;48.238;11.160;2023-06-10T02:30:28;9.73;;;8.70;;
5704;SDS011;2877;48.238;11.160;2023-06-10T02:32:53;8.80;;;7.90;;
5704;SDS011;2877;48.238;11.160;2023-06-10T02:35:21;9.23;;;8.33;;
5704;SDS011;2877;48.238;11.160;2023-06-10T02:37:47;10.43;;;8.43;;
5704;SDS011;2877;48.238;11.160;2023-06-10T02:40:13;9.77;;;8.33;;
5704;SDS011;2877;48.238;11.160;2023-06-10T02:42:38;9.93;;;8.57;;
5704;SDS011;2877;48.238;11.160;2023-06-10T02:45:04;10.10;;;8.40;;
5704;SDS011;2877;48.238;11.160;2023-06-10T02:47:30;10.23;;;8.50;;
5704;SDS011;2877;48.238;11.160;2023-06-10T02:49:56;9.50;;;8.50;;
5704;SDS011;2877;48.238;11.160;2023-06-10T02:52:21;10.77;;;8.77;;
5704;SDS011;2877;48.238;11.160;2023-06-10T02:54:47;10.70;;;9.33;;
5704;SDS011;2877;48.238;11.160;2023-06-10T02:57:13;9.50;;;8.50;;
5704;SDS011;2877;48.238;11.160;2023-06-10T02:59:39;11.00;;;8.90;;
5704;SDS011;2877;48.238;11.160;2023-06-10T03:02:05;9.57;;;8.60;;
5704;SDS011;2877;48.238;11.160;2023-06-10T03:04:30;10.57;;;8.40;;
5704;SDS011;2877;48.238;11.160;2023-06-10T03:06:56;11.13;;;8.60;;
5704;SDS011;2877;48.238;11.160;2023-06-10T03:09:22;10.20;;;8.60;;
5704;SDS011;2877;48.238;11.160;2023-06-10T03:11:47;9.63;;;8.10;;
5704;SDS011;2877;48.238;11.160;2023-06-10T03:14:13;10.07;;;8.93;;
5704;SDS011;2877;48.238;11.160;2023-06-10T03:16:38;9.13;;;8.23;;
5704;SDS011;2877;48.238;11.160;2023-06-10T03:19:07;14.53;;;9.30;;
5704;SDS011;2877;48.238;11.160;2023-06-10T03:21:34;12.03;;;9.67;;
5704;SDS011;2877;48.238;11.160;2023-06-10T03:23:59;13.70;;;9.50;;
5704;SDS011;2877;48.238;11.160;2023-06-10T03:26:26;10.50;;;9.10;;
5704;SDS011;2877;48.238;11.160;2023-06-10T03:28:52;9.70;;;8.70;;
5704;SDS011;2877;48.238;11.160;2023-06-10T03:31:18;14.20;;;9.80;;
5704;SDS011;2877;48.238;11.160;2023-06-10T03:33:43;10.63;;;9.30;;
5704;SDS011;2877;48.238;11.160;2023-06-10T03:36:09;9.47;;;8.50;;
5704;SDS011;2877;48.238;11.160;2023-06-10T03:38:34;10.50;;;9.40;;
5704;SDS011;2877;48.238;11.160;2023-06-10T03:41:00;10.17;;;9.13;;
5704;SDS011;2877;48.238;11.160;2023-06-10T03:43:26;11.30;;;10.20;;
5704;SDS011;2877;48.238;11.160;2023-06-10T03:45:52;11.57;;;9.60;;
5704;SDS011;2877;48.238;11.160;2023-06-10T03:48:18;10.37;;;9.30;;
5704;SDS011;2877;48.238;11.160;2023-06-10T03:50:43;11.63;;;9.40;;
5704;SDS011;2877;48.238;11.160;2023-06-10T03:53:09;15.43;;;10.13;;
5704;SDS011;2877;48.238;11.160;2023-06-10T03:55:35;10.03;;;8.97;;
5704;SDS011;2877;48.238;11.160;2023-06-10T03:58:01;9.83;;;8.83;;
5704;SDS011;2877;48.238;11.160;2023-06-10T04:00:26;12.40;;;9.40;;
5704;SDS011;2877;48.238;11.160;2023-06-10T04:02:53;10.47;;;9.47;;
5704;SDS011;2877;48.238;11.160;2023-06-10T04:05:23;11.37;;;9.13;;
5704;SDS011;2877;48.238;11.160;2023-06-10T04:07:48;11.63;;;9.20;;
5704;SDS011;2877;48.238;11.160;2023-06-10T04:10:14;11.20;;;9.10;;
5704;SDS011;2877;48.238;11.160;2023-06-10T04:12:40;14.60;;;8.80;;
5704;SDS011;2877;48.238;11.160;2023-06-10T04:15:06;10.90;;;9.03;;
5704;SDS011;2877;48.238;11.160;2023-06-10T04:17:32;9.93;;;8.93;;
5704;SDS011;2877;48.238;11.160;2023-06-10T04:19:58;11.00;;;9.80;;
5704;SDS011;2877;48.238;11.160;2023-06-10T04:22:24;12.27;;;9.40;;
5704;SDS011;2877;48.238;11.160;2023-06-10T04:24:50;10.73;;;9.63;;
5704;SDS011;2877;48.238;11.160;2023-06-10T04:27:15;11.63;;;9.00;;
5704;SDS011;2877;48.238;11.160;2023-06-10T04:29:41;12.77;;;9.33;;
5704;SDS011;2877;48.238;11.160;2023-06-10T04:32:06;9.70;;;8.77;;
5704;SDS011;2877;48.238;11.160;2023-06-10T04:34:33;9.80;;;8.80;;
5704;SDS011;2877;48.238;11.160;2023-06-10T04:36:58;10.13;;;8.43;;
5704;SDS011;2877;48.238;11.160;2023-06-10T04:39:24;10.43;;;9.10;;
5704;SDS011;2877;48.238;11.160;2023-06-10T04:41:49;14.07;;;8.80;;
5704;SDS011;2877;48.238;11.160;2023-06-10T04:44:15;10.40;;;8.40;;
5704;SDS011;2877;48.238;11.160;2023-06-10T04:46:40;9.23;;;8.33;;
5704;SDS011;2877;48.238;11.160;2023-06-10T04:49:06;10.30;;;7.73;;
5704;SDS011;2877;48.238;11.160;2023-06-10T04:51:31;12.00;;;9.57;;
5704;SDS011;2877;48.238;11.160;2023-06-10T04:53:59;12.37;;;9.23;;
5704;SDS011;2877;48.238;11.160;2023-06-10T04:56:28;9.17;;;8.27;;
5704;SDS011;2877;48.238;11.160;2023-06-10T04:58:55;9.97;;;8.90;;
5704;SDS011;2877;48.238;11.160;2023-06-10T05:01:24;19.27;;;9.73;;
5704;SDS011;2877;48.238;11.160;2023-06-10T05:03:50;9.40;;;8.40;;
5704;SDS011;2877;48.238;11.160;2023-06-10T05:06:15;10.00;;;8.93;;
5704;SDS011;2877;48.238;11.160;2023-06-10T05:08:41;9.83;;;8.00;;
5704;SDS011;2877;48.238;11.160;2023-06-10T05:11:06;11.07;;;9.30;;
5704;SDS011;2877;48.238;11.160;2023-06-10T05:13:32;10.27;;;9.20;;
5704;SDS011;2877;48.238;11.160;2023-06-10T05:15:57;11.70;;;9.73;;
5704;SDS011;2877;48.238;11.160;2023-06-10T05:18:23;10.57;;;9.50;;
5704;SDS011;2877;48.238;11.160;2023-06-10T05:20:49;15.93;;;9.40;;
5704;SDS011;2877;48.238;11.160;2023-06-10T05:23:14;11.40;;;9.60;;
5704;SDS011;2877;48.238;11.160;2023-06-10T05:25:40;9.43;;;8.53;;
5704;SDS011;2877;48.238;11.160;2023-06-10T05:28:06;13.30;;;8.63;;
5704;SDS011;2877;48.238;11.160;2023-06-10T05:30:34;10.83;;;8.13;;
5704;SDS011;2877;48.238;11.160;2023-06-10T05:33:00;11.63;;;9.30;;
5704;SDS011;2877;48.238;11.160;2023-06-10T05:35:26;12.53;;;9.30;;
5704;SDS011;2877;48.238;11.160;2023-06-10T05:37:51;10.30;;;9.23;;
5704;SDS011;2877;48.238;11.160;2023-06-10T05:40:17;9.20;;;8.20;;
5704;SDS011;2877;48.238;11.160;2023-06-10T05:42:42;10.67;;;9.57;;
5704;SDS011;2877;48.238;11.160;2023-06-10T05:45:08;10.23;;;8.80;;
5704;SDS011;2877;48.238;11.160;2023-06-10T05:47:34;10.10;;;8.97;;
5704;SDS011;2877;48.238;11.160;2023-06-10T05:50:00;11.63;;;9.00;;
5704;SDS011;2877;48.238;11.160;2023-06-10T05:52:25;9.60;;;8.40;;
5704;SDS011;2877;48.238;11.160;2023-06-10T05:54:51;10.40;;;9.30;;
5704;SDS011;2877;48.238;11.160;2023-06-10T05:57:16;10.17;;;8.83;;
5704;SDS011;2877;48.238;11.160;2023-06-10T05:59:42;10.50;;;9.40;;
5704;SDS011;2877;48.238;11.160;2023-06-10T06:02:07;9.97;;;8.80;;
5704;SDS011;2877;48.238;11.160;2023-06-10T06:04:33;10.40;;;9.40;;
5704;SDS011;2877;48.238;11.160;2023-06-10T06:06:59;10.60;;;9.20;;
5704;SDS011;2877;48.238;11.160;2023-06-10T06:09:25;11.70;;;9.27;;
5704;SDS011;2877;48.238;11.160;2023-06-10T06:11:50;11.40;;;10.20;;
5704;SDS011;2877;48.238;11.160;2023-06-10T06:14:16;10.90;;;9.30;;
5704;SDS011;2877;48.238;11.160;2023-06-10T06:16:41;10.67;;;9.23;;
5704;SDS011;2877;48.238;11.160;2023-06-10T06:19:08;10.50;;;8.90;;
5704;SDS011;2877;48.238;11.160;2023-06-10T06:21:36;10.30;;;9.20;;
5704;SDS011;2877;48.238;11.160;2023-06-10T06:24:01;10.27;;;9.17;;
5704;SDS011;2877;48.238;11.160;2023-06-10T06:26:27;9.47;;;8.53;;
5704;SDS011;2877;48.238;11.160;2023-06-10T06:28:52;21.20;;;9.10;;
5704;SDS011;2877;48.238;11.160;2023-06-10T06:31:18;10.77;;;9.00;;
5704;SDS011;2877;48.238;11.160;2023-06-10T06:33:43;12.17;;;9.67;;
5704;SDS011;2877;48.238;11.160;2023-06-10T06:36:09;11.67;;;8.57;;
5704;SDS011;2877;48.238;11.160;2023-06-10T06:38:35;10.10;;;9.03;;
5704;SDS011;2877;48.238;11.160;2023-06-10T06:41:00;13.10;;;9.43;;
5704;SDS011;2877;48.238;11.160;2023-06-10T06:43:30;9.70;;;8.67;;
5704;SDS011;2877;48.238;11.160;2023-06-10T06:45:56;10.43;;;7.97;;
5704;SDS011;2877;48.238;11.160;2023-06-10T06:48:22;8.90;;;8.00;;
5704;SDS011;2877;48.238;11.160;2023-06-10T06:50:48;9.50;;;8.43;;
5704;SDS011;2877;48.238;11.160;2023-06-10T06:53:14;11.57;;;9.23;;
5704;SDS011;2877;48.238;11.160;2023-06-10T06:55:39;9.30;;;7.93;;
5704;SDS011;2877;48.238;11.160;2023-06-10T06:58:05;10.17;;;8.50;;
5704;SDS011;2877;48.238;11.160;2023-06-10T07:00:31;12.43;;;8.80;;
5704;SDS011;2877;48.238;11.160;2023-06-10T07:02:56;8.30;;;7.43;;
5704;SDS011;2877;48.238;11.160;2023-06-10T07:05:22;8.20;;;7.40;;
5704;SDS011;2877;48.238;11.160;2023-06-10T07:07:51;7.93;;;6.47;;
5704;SDS011;2877;48.238;11.160;2023-06-10T07:10:19;8.27;;;7.30;;
5704;SDS011;2877;48.238;11.160;2023-06-10T07:12:46;6.90;;;6.20;;
5704;SDS011;2877;48.238;11.160;2023-06-10T07:15:12;7.13;;;6.47;;
5704;SDS011;2877;48.238;11.160;2023-06-10T07:17:38;7.90;;;7.10;;
5704;SDS011;2877;48.238;11.160;2023-06-10T07:20:04;8.20;;;7.30;;
5704;SDS011;2877;48.238;11.160;2023-06-10T07:22:30;6.60;;;5.97;;
5704;SDS011;2877;48.238;11.160;2023-06-10T07:24:55;6.70;;;6.00;;
5704;SDS011;2877;48.238;11.160;2023-06-10T07:27:21;7.50;;;6.40;;
5704;SDS011;2877;48.238;11.160;2023-06-10T07:29:47;6.70;;;6.10;;
5704;SDS011;2877;48.238;11.160;2023-06-10T07:32:12;8.30;;;6.33;;
5704;SDS011;2877;48.238;11.160;2023-06-10T07:34:38;7.73;;;6.83;;
5704;SDS011;2877;48.238;11.160;2023-06-10T07:37:03;6.57;;;5.97;;
5704;SDS011;2877;48.238;11.160;2023-06-10T07:39:29;8.07;;;6.20;;
5704;SDS011;2877;48.238;11.160;2023-06-10T07:41:54;6.90;;;6.20;;
5704;SDS011;2877;48.238;11.160;2023-06-10T07:44:22;5.87;;;5.37;;
5704;SDS011;2877;48.238;11.160;2023-06-10T07:46:48;6.87;;;6.17;;
5704;SDS011;2877;48.238;11.160;2023-06-10T07:49:13;5.40;;;4.90;;
5704;SDS011;2877;48.238;11.160;2023-06-10T07:51:39;5.80;;;5.17;;
5704;SDS011;2877;48.238;11.160;2023-06-10T07:54:04;7.43;;;6.50;;
5704;SDS011;2877;48.238;11.160;2023-06-10T07:56:30;6.00;;;5.50;;
5704;SDS011;2877;48.238;11.160;2023-06-10T07:58:56;6.00;;;5.50;;
5704;SDS011;2877;48.238;11.160;2023-06-10T08:01:22;5.47;;;4.97;;
5704;SDS011;2877;48.238;11.160;2023-06-10T08:03:48;4.87;;;4.40;;
5704;SDS011;2877;48.238;11.160;2023-06-10T08:06:13;5.10;;;4.70;;
5704;SDS011;2877;48.238;11.160;2023-06-10T08:08:39;4.57;;;4.17;;
5704;SDS011;2877;48.238;11.160;2023-06-10T08:11:08;5.17;;;4.73;;
5704;SDS011;2877;48.238;11.160;2023-06-10T08:13:36;5.83;;;4.47;;
5704;SDS011;2877;48.238;11.160;2023-06-10T08:16:01;5.03;;;4.60;;
5704;SDS011;2877;48.238;11.160;2023-06-10T08:18:28;4.63;;;4.23;;
5704;SDS011;2877;48.238;11.160;2023-06-10T08:20:53;4.30;;;4.00;;
5704;SDS011;2877;48.238;11.160;2023-06-10T08:23:19;4.63;;;4.23;;
5704;SDS011;2877;48.238;11.160;2023-06-10T08:25:45;4.80;;;4.40;;
5704;SDS011;2877;48.238;11.160;2023-06-10T08:28:10;4.83;;;4.43;;
5704;SDS011;2877;48.238;11.160;2023-06-10T08:30:36;4.73;;;4.33;;
5704;SDS011;2877;48.238;11.160;2023-06-10T08:33:01;5.67;;;4.63;;
5704;SDS011;2877;48.238;11.160;2023-06-10T08:35:27;5.93;;;4.70;;
5704;SDS011;2877;48.238;11.160;2023-06-10T08:37:52;5.10;;;4.60;;
5704;SDS011;2877;48.238;11.160;2023-06-10T08:40:18;4.40;;;4.00;;
5704;SDS011;2877;48.238;11.160;2023-06-10T08:45:29;4.80;;;4.40;;
5704;SDS011;2877;48.238;11.160;2023-06-10T08:48:00;5.30;;;4.63;;
5704;SDS011;2877;48.238;11.160;2023-06-10T08:50:29;4.30;;;3.90;;
5704;SDS011;2877;48.238;11.160;2023-06-10T08:52:57;4.50;;;4.10;;
5704;SDS011;2877;48.238;11.160;2023-06-10T08:55:26;4.80;;;4.40;;
5704;SDS011;2877;48.238;11.160;2023-06-10T08:57:55;4.13;;;3.73;;
5704;SDS011;2877;48.238;11.160;2023-06-10T09:00:21;4.93;;;4.50;;
5704;SDS011;2877;48.238;11.160;2023-06-10T09:02:47;4.50;;;3.93;;
5704;SDS011;2877;48.238;11.160;2023-06-10T09:05:13;4.07;;;3.77;;
5704;SDS011;2877;48.238;11.160;2023-06-10T09:07:39;4.23;;;3.93;;
5704;SDS011;2877;48.238;11.160;2023-06-10T09:10:04;11.63;;;4.17;;
5704;SDS011;2877;48.238;11.160;2023-06-10T09:12:32;4.20;;;3.90;;
5704;SDS011;2877;48.238;11.160;2023-06-10T09:14:59;4.93;;;4.00;;
5704;SDS011;2877;48.238;11.160;2023-06-10T09:17:25;4.23;;;3.93;;
5704;SDS011;2877;48.238;11.160;2023-06-10T09:19:52;4.40;;;3.90;;
5704;SDS011;2877;48.238;11.160;2023-06-10T09:22:20;5.00;;;3.87;;
5704;SDS011;2877;48.238;11.160;2023-06-10T09:24:46;4.27;;;3.97;;
5704;SDS011;2877;48.238;11.160;2023-06-10T09:27:12;3.90;;;3.60;;
5704;SDS011;2877;48.238;11.160;2023-06-10T09:32:17;4.57;;;4.17;;
5704;SDS011;2877;48.238;11.160;2023-06-10T09:34:44;4.77;;;3.90;;
5704;SDS011;2877;48.238;11.160;2023-06-10T09:37:10;4.50;;;4.10;;
5704;SDS011;2877;48.238;11.160;2023-06-10T09:39:37;4.00;;;3.40;;
5704;SDS011;2877;48.238;11.160;2023-06-10T09:42:24;14.67;;;4.40;;
5704;SDS011;2877;48.238;11.160;2023-06-10T09:44:50;3.87;;;3.50;;
5704;SDS011;2877;48.238;11.160;2023-06-10T09:47:20;5.43;;;4.07;;
5704;SDS011;2877;48.238;11.160;2023-06-10T09:49:47;4.77;;;4.37;;
5704;SDS011;2877;48.238;11.160;2023-06-10T09:52:21;4.40;;;3.97;;
5704;SDS011;2877;48.238;11.160;2023-06-10T09:54:51;4.80;;;4.40;;
5704;SDS011;2877;48.238;11.160;2023-06-10T09:57:17;5.73;;;3.90;;
5704;SDS011;2877;48.238;11.160;2023-06-10T09:59:43;3.33;;;3.13;;
5704;SDS011;2877;48.238;11.160;2023-06-10T10:02:14;3.60;;;3.30;;
5704;SDS011;2877;48.238;11.160;2023-06-10T10:04:40;4.70;;;3.47;;
5704;SDS011;2877;48.238;11.160;2023-06-10T10:07:06;3.93;;;3.10;;
5704;SDS011;2877;48.238;11.160;2023-06-10T10:09:33;3.90;;;3.60;;
5704;SDS011;2877;48.238;11.160;2023-06-10T10:12:01;3.73;;;3.43;;
5704;SDS011;2877;48.238;11.160;2023-06-10T10:14:28;4.13;;;3.83;;
5704;SDS011;2877;48.238;11.160;2023-06-10T10:16:56;3.80;;;3.60;;
5704;SDS011;2877;48.238;11.160;2023-06-10T10:19:28;5.40;;;3.60;;
5704;SDS011;2877;48.238;11.160;2023-06-10T10:21:58;4.20;;;3.90;;
5704;SDS011;2877;48.238;11.160;2023-06-10T10:24:36;5.27;;;4.23;;
5704;SDS011;2877;48.238;11.160;2023-06-10T10:27:09;4.43;;;4.03;;
5704;SDS011;2877;48.238;11.160;2023-06-10T10:29:51;4.20;;;3.60;;
5704;SDS011;2877;48.238;11.160;2023-06-10T10:32:18;4.00;;;3.60;;
5704;SDS011;2877;48.238;11.160;2023-06-10T10:37:33;3.63;;;3.40;;
5704;SDS011;2877;48.238;11.160;2023-06-10T10:40:00;3.83;;;3.57;;
5704;SDS011;2877;48.238;11.160;2023-06-10T10:42:28;4.10;;;3.80;;
5704;SDS011;2877;48.238;11.160;2023-06-10T10:44:54;3.83;;;3.53;;
5704;SDS011;2877;48.238;11.160;2023-06-10T10:47:21;4.70;;;4.30;;
5704;SDS011;2877;48.238;11.160;2023-06-10T10:49:47;3.97;;;3.63;;
5704;SDS011;2877;48.238;11.160;2023-06-10T10:52:15;4.40;;;4.00;;
5704;SDS011;2877;48.238;11.160;2023-06-10T10:54:44;4.27;;;3.93;;
5704;SDS011;2877;48.238;11.160;2023-06-10T10:57:15;3.90;;;3.60;;
5704;SDS011;2877;48.238;11.160;2023-06-10T11:00:00;7.80;;;4.40;;
5704;SDS011;2877;48.238;11.160;2023-06-10T11:04:58;8.63;;;3.80;;
5704;SDS011;2877;48.238;11.160;2023-06-10T11:07:26;4.00;;;3.70;;
5704;SDS011;2877;48.238;11.160;2023-06-10T11:10:01;6.37;;;3.80;;
5704;SDS011;2877;48.238;11.160;2023-06-10T11:12:49;6.00;;;4.10;;
5704;SDS011;2877;48.238;11.160;2023-06-10T11:15:19;4.37;;;3.97;;
5704;SDS011;2877;48.238;11.160;2023-06-10T11:23:30;4.13;;;3.77;;
5704;SDS011;2877;48.238;11.160;2023-06-10T11:26:15;3.73;;;3.40;;
5704;SDS011;2877;48.238;11.160;2023-06-10T11:31:25;3.10;;;2.90;;
5704;SDS011;2877;48.238;11.160;2023-06-10T11:36:24;3.90;;;3.70;;
5704;SDS011;2877;48.238;11.160;2023-06-10T11:38:53;3.80;;;3.50;;
5704;SDS011;2877;48.238;11.160;2023-06-10T11:41:21;3.63;;;3.33;;
5704;SDS011;2877;48.238;11.160;2023-06-10T11:43:48;4.30;;;4.00;;
5704;SDS011;2877;48.238;11.160;2023-06-10T11:46:14;6.87;;;3.90;;
5704;SDS011;2877;48.238;11.160;2023-06-10T11:48:48;5.10;;;4.27;;
5704;SDS011;2877;48.238;11.160;2023-06-10T11:51:17;3.70;;;3.40;;
5704;SDS011;2877;48.238;11.160;2023-06-10T11:53:45;4.93;;;4.00;;
5704;SDS011;2877;48.238;11.160;2023-06-10T11:56:21;5.93;;;3.90;;
5704;SDS011;2877;48.238;11.160;2023-06-10T11:59:01;5.07;;;4.10;;
5704;SDS011;2877;48.238;11.160;2023-06-10T12:01:35;4.27;;;3.97;;
5704;SDS011;2877;48.238;11.160;2023-06-10T12:09:16;3.97;;;3.67;;
5704;SDS011;2877;48.238;11.160;2023-06-10T12:11:48;5.73;;;3.80;;
5704;SDS011;2877;48.238;11.160;2023-06-10T12:14:15;9.50;;;4.13;;
5704;SDS011;2877;48.238;11.160;2023-06-10T12:16:47;4.60;;;3.70;;
5704;SDS011;2877;48.238;11.160;2023-06-10T12:19:14;4.43;;;3.50;;
5704;SDS011;2877;48.238;11.160;2023-06-10T12:21:39;3.40;;;3.20;;
5704;SDS011;2877;48.238;11.160;2023-06-10T12:24:06;3.37;;;3.13;;
5704;SDS011;2877;48.238;11.160;2023-06-10T12:26:39;4.07;;;3.77;;
5704;SDS011;2877;48.238;11.160;2023-06-10T12:29:21;4.57;;;4.10;;
5704;SDS011;2877;48.238;11.160;2023-06-10T12:31:56;8.63;;;4.03;;
5704;SDS011;2877;48.238;11.160;2023-06-10T12:34:34;5.03;;;4.17;;
5704;SDS011;2877;48.238;11.160;2023-06-10T12:37:01;4.90;;;4.10;;
5704;SDS011;2877;48.238;11.160;2023-06-10T12:39:29;3.90;;;3.60;;
5704;SDS011;2877;48.238;11.160;2023-06-10T12:41:55;4.07;;;3.73;;
5704;SDS011;2877;48.238;11.160;2023-06-10T12:44:30;8.33;;;3.63;;
5704;SDS011;2877;48.238;11.160;2023-06-10T12:46:57;3.73;;;3.47;;
5704;SDS011;2877;48.238;11.160;2023-06-10T12:49:22;4.00;;;3.60;;
5704;SDS011;2877;48.238;11.160;2023-06-10T12:51:48;3.50;;;3.20;;
5704;SDS011;2877;48.238;11.160;2023-06-10T12:54:14;3.60;;;3.30;;
5704;SDS011;2877;48.238;11.160;2023-06-10T12:56:39;3.30;;;3.10;;
5704;SDS011;2877;48.238;11.160;2023-06-10T12:59:05;3.70;;;3.40;;
5704;SDS011;2877;48.238;11.160;2023-06-10T13:01:31;3.77;;;3.37;;
5704;SDS011;2877;48.238;11.160;2023-06-10T13:03:57;3.80;;;3.50;;
5704;SDS011;2877;48.238;11.160;2023-06-10T13:06:23;6.10;;;2.93;;
5704;SDS011;2877;48.238;11.160;2023-06-10T13:08:48;4.47;;;3.87;;
5704;SDS011;2877;48.238;11.160;2023-06-10T13:11:15;3.63;;;3.40;;
5704;SDS011;2877;48.238;11.160;2023-06-10T13:13:41;4.10;;;2.80;;
5704;SDS011;2877;48.238;11.160;2023-06-10T13:16:07;3.90;;;3.60;;
5704;SDS011;2877;48.238;11.160;2023-06-10T13:18:33;3.53;;;3.23;;
5704;SDS011;2877;48.238;11.160;2023-06-10T13:21:02;8.13;;;3.80;;
5704;SDS011;2877;48.238;11.160;2023-06-10T13:23:28;2.87;;;2.67;;
5704;SDS011;2877;48.238;11.160;2023-06-10T13:25:54;3.03;;;2.83;;
5704;SDS011;2877;48.238;11.160;2023-06-10T13:28:20;3.30;;;3.10;;
5704;SDS011;2877;48.238;11.160;2023-06-10T13:30:46;3.60;;;3.40;;
5704;SDS011;2877;48.238;11.160;2023-06-10T13:33:11;3.60;;;3.17;;
5704;SDS011;2877;48.238;11.160;2023-06-10T13:35:37;3.17;;;2.97;;
5704;SDS011;2877;48.238;11.160;2023-06-10T13:38:03;3.00;;;2.80;;
5704;SDS011;2877;48.238;11.160;2023-06-10T13:40:28;2.77;;;2.67;;
5704;SDS011;2877;48.238;11.160;2023-06-10T13:42:54;2.77;;;2.67;;
5704;SDS011;2877;48.238;11.160;2023-06-10T13:45:20;3.00;;;2.80;;
5704;SDS011;2877;48.238;11.160;2023-06-10T13:47:45;3.07;;;2.70;;
5704;SDS011;2877;48.238;11.160;2023-06-10T13:50:11;3.27;;;2.90;;
5704;SDS011;2877;48.238;11.160;2023-06-10T13:52:38;3.40;;;3.20;;
5704;SDS011;2877;48.238;11.160;2023-06-10T13:55:03;13.30;;;3.70;;
5704;SDS011;2877;48.238;11.160;2023-06-10T13:57:29;5.47;;;3.40;;
5704;SDS011;2877;48.238;11.160;2023-06-10T13:59:55;6.73;;;3.50;;
5704;SDS011;2877;48.238;11.160;2023-06-10T14:02:21;3.30;;;2.70;;
5704;SDS011;2877;48.238;11.160;2023-06-10T14:04:47;2.73;;;2.63;;
5704;SDS011;2877;48.238;11.160;2023-06-10T14:07:12;2.87;;;2.77;;
5704;SDS011;2877;48.238;11.160;2023-06-10T14:09:38;8.73;;;3.30;;
5704;SDS011;2877;48.238;11.160;2023-06-10T14:12:03;2.93;;;2.70;;
5704;SDS011;2877;48.238;11.160;2023-06-10T14:14:30;3.23;;;2.93;;
5704;SDS011;2877;48.238;11.160;2023-06-10T14:16:57;4.00;;;3.60;;
5704;SDS011;2877;48.238;11.160;2023-06-10T14:19:23;4.20;;;3.80;;
5704;SDS011;2877;48.238;11.160;2023-06-10T14:21:49;9.17;;;3.97;;
5704;SDS011;2877;48.238;11.160;2023-06-10T14:24:14;4.10;;;3.63;;
5704;SDS011;2877;48.238;11.160;2023-06-10T14:26:40;16.13;;;4.70;;
5704;SDS011;2877;48.238;11.160;2023-06-10T14:29:06;5.60;;;3.53;;
5704;SDS011;2877;48.238;11.160;2023-06-10T14:31:32;13.00;;;4.63;;
5704;SDS011;2877;48.238;11.160;2023-06-10T14:33:57;3.97;;;3.67;;
5704;SDS011;2877;48.238;11.160;2023-06-10T14:36:23;4.00;;;3.70;;
5704;SDS011;2877;48.238;11.160;2023-06-10T14:38:48;3.37;;;3.17;;
5704;SDS011;2877;48.238;11.160;2023-06-10T14:41:14;2.83;;;2.63;;
5704;SDS011;2877;48.238;11.160;2023-06-10T14:43:40;3.40;;;3.20;;
5704;SDS011;2877;48.238;11.160;2023-06-10T14:46:06;3.07;;;2.87;;
5704;SDS011;2877;48.238;11.160;2023-06-10T14:48:31;2.93;;;2.73;;
5704;SDS011;2877;48.238;11.160;2023-06-10T14:50:57;2.63;;;2.43;;
5704;SDS011;2877;48.238;11.160;2023-06-10T14:53:22;2.80;;;2.60;;
5704;SDS011;2877;48.238;11.160;2023-06-10T14:55:48;2.93;;;2.80;;
5704;SDS011;2877;48.238;11.160;2023-06-10T14:58:13;7.47;;;3.67;;
5704;SDS011;2877;48.238;11.160;2023-06-10T15:00:39;2.73;;;2.53;;
5704;SDS011;2877;48.238;11.160;2023-06-10T15:03:04;3.43;;;2.47;;
5704;SDS011;2877;48.238;11.160;2023-06-10T15:05:30;2.67;;;2.47;;
5704;SDS011;2877;48.238;11.160;2023-06-10T15:07:55;5.70;;;2.60;;
5704;SDS011;2877;48.238;11.160;2023-06-10T15:10:21;2.70;;;2.60;;
5704;SDS011;2877;48.238;11.160;2023-06-10T15:12:47;3.20;;;2.30;;
5704;SDS011;2877;48.238;11.160;2023-06-10T15:15:13;2.67;;;2.43;;
5704;SDS011;2877;48.238;11.160;2023-06-10T15:17:38;2.47;;;2.37;;
5704;SDS011;2877;48.238;11.160;2023-06-10T15:20:04;2.90;;;2.70;;
5704;SDS011;2877;48.238;11.160;2023-06-10T15:22:30;3.37;;;2.90;;
5704;SDS011;2877;48.238;11.160;2023-06-10T15:24:56;3.97;;;2.97;;